Monon, IN (47959)

9:12 AM EDT on July 31, 2014 (GMT -0400)
Bluewater Drive (KINMONTI6) Elev 623 ft | 40.76 °N, 86.75 °W | Change Station

Current weather conditions updated 4 minutes ago

Clear
Clear
64.4 °F
Feels Like 64.4 °F
N
3.2
Wind Variable Wind from SSE

Today is forecast to be nearly the same temperature as yesterday.

Today
High -- | Low -- °F
--% Chance of Precip.
Yesterday
High -- | Low -- °F
Precip. -- in
6:42 AM 9:04 PM
Waxing Crescent, 18% visible
Pressure 30.07 in
Visibility 5.0 miles
Clouds Clear
Dew Point 64 °F
Humidity 98%
Rainfall 0.00 in
Snow Depth Not available.
UV 2 out of 12
Pollen 7.40 out of 12
Air Quality Not available.
Flu Activity Not available.
METAR KRZL 311255Z AUTO 21003KT 5SM BR CLR 15/15 A3007 RMK AO2

More Conditions Fewer Conditions

Pressure 30.07 in
Visibility 5.0 miles
Clouds Clear
Dew Point 64 °F
Humidity 98%
Rainfall 0.00 in
Snow Depth Not available.
UV 2 out of 12
Pollen 7.40 out of 12
Air Quality Not available.
Flu Activity Not available.
METAR KRZL 311255Z AUTO 21003KT 5SM BR CLR 15/15 A3007 RMK AO2

More Conditions Fewer Conditions

10-Day Weather Forecast

Almanac

Astronomy

Jul. 31, 2014 Rise Set
Actual Time 6:42 AM EDT 9:04 PM EDT
Civil Twilight 6:11 AM EDT 9:35 PM EDT
Nautical Twilight 5:33 AM EDT 10:13 PM EDT
Astronomical Twilight 4:51 AM EDT 10:55 PM EDT
Moon 11:11 AM EDT 11:14 PM EDT
Length of Visible Light 15h 23m
Length of Day
14h 21m
Tomorrow will be 2m 2s shorter.
Waxing Crescent, 18% of the Moon is Illuminated
Today
Waxing Crescent
Aug 3
First Quarter
Aug 10
Full
Aug 17
Last Quarter
Aug 25
New

Today's Extremes

State Highs State Lows

Community

WunderPhotos

Upload Photos

1,739,318 photos uploaded!

WunderBlogs® & News

Nearby

Snow Depth

Station Depth Elevation
No new snow has been reported.

Earthquake Activity

City Distance Mag. Time & Date
No recent earthquake activity has been reported nearby.
Minimum magnitude displayed is 2.5.

Coastal Water Temperatures

Place Temperature
No Stations Reporting

Nearby Weather Stations

Station Location Temp. Dew Point Humidity Wind Precip. Elev Updated Type
Bluewater Drive, Monticello, IN 64.4 °F 64 °F 98% SSE  at  3.2 mph - / hr 623 ft 9:07 AM EDT Normal

Show More Stations Show Fewer Stations